Flight Track Log - Related Links

Times and Time Zones

All times are in EDT time to prevent confusion due to time zone crossing. See the RLI811 flight status page for this flight to view local times or setup timezone preferences in your user account.

Time Position Orientation Groundspeed Altitude Reporting Facility
EDT Latitude Longitude Course Direction KTS MPH feet Rate Location/Type
Fri 09:53:17 AM 41.3769 -72.2408 268° West 189 217 6,500  Level Boston Center
Fri 09:54:13 AM 41.3750 -72.3044 268° West 190 219 6,500  Level Boston Center
Fri 09:55:20 AM 41.3750 -72.3792 270° West 188 216 6,500  Level Boston Center
Fri 09:56:21 AM 41.3772 -72.4483 272° West 185 213 6,500  Level Boston Center
Fri 09:57:22 AM 41.3772 -72.5231 270° West 188 216 6,500 -217 Level Boston Center
Fri 09:59:00 AM 41.3708 -72.6300 265° West  Level FlightAware Approximate
Fri 10:04:11 AM 41.3667 -73.0000 275° West 190 219 4,800  Level New York TRACON
Fri 10:06:00 AM 41.3500 -73.0910 270° West  Level FlightAware Approximate
Fri 10:06:00 AM 41.3472 -73.1165 258° West  Level FlightAware Approximate
Fri 10:07:00 AM 41.3524 -73.1566 275° West  Level FlightAware Approximate
Fri 10:07:11 AM 41.3667 -73.2000 258° West 191 220 3,400  Level New York TRACON
Fri 10:08:00 AM 41.3563 -73.2221 275° West  Level FlightAware Approximate
Fri 10:09:00 AM 41.3667 -73.3193 270° West  Level FlightAware Approximate
Fri 10:09:00 AM 41.3601 -73.2876 275° West  Level FlightAware Approximate
Fri 10:16:00 AM 41.3667 -73.4667 270° West  Level FlightAware Approximate
Fri 10:17:00 AM 41.3715 -73.4822 270° West  Level Estimated
Fri 10:18:00 AM 41.3715 -73.4822 270° West  Level Estimated
Fri 10:19:00 AM 41.3715 -73.4822 270° West  Level Estimated
Fri 10:20:00 AM 41.3715 -73.4822 270° West  Level Estimated
Fri 10:21:00 AM 41.3715 -73.4822 270° West  Level Estimated
Fri 10:22:00 AM 41.3715 -73.4822 270° West  Level Estimated
Fri 10:23:00 AM 41.3715 -73.4822 270° West  Level Estimated
Fri 10:24:00 AM 41.3715 -73.4822 270° West  Level Estimated
Fri 10:25:00 AM 41.3715 -73.4822 270° West  Level Estimated
Fri 10:26:00 AM 41.3715 -73.4822 270° West  Level Estimated
Fri 10:27:00 AM 41.3715 -73.4822 270° West  Level Estimated
Fri 10:28:00 AM 41.3715 -73.4822 270° West  Level Estimated
Fri 10:29:00 AM 41.3715 -73.4822 270° West  Level Estimated
Fri 10:30:00 AM 41.3715 -73.4822 270° West  Level Estimated
Fri 10:31:00 AM 41.3715 -73.4822 270° West  Level Estimated
Fri 10:32:00 AM 41.3715 -73.4822 270° West  Level Estimated
Fri 10:33:00 AM 41.3715 -73.4822 270° West  Level Estimated

Login

Don't have an account? Register now (free) for customized features, flight alerts, and more!